sensor_id;sensor_type;location;lat;lon;timestamp;P1;durP1;ratioP1;P2;durP2;ratioP2
72205;SDS011;60111;48.286;7.812;2023-05-02T00:01:58;5.20;;;4.75;;
72205;SDS011;60111;48.286;7.812;2023-05-02T00:04:31;5.13;;;4.60;;
72205;SDS011;60111;48.286;7.812;2023-05-02T00:07:04;5.45;;;4.92;;
72205;SDS011;60111;48.286;7.812;2023-05-02T00:09:36;6.30;;;4.97;;
72205;SDS011;60111;48.286;7.812;2023-05-02T00:12:09;6.97;;;4.42;;
72205;SDS011;60111;48.286;7.812;2023-05-02T00:14:42;4.97;;;4.47;;
72205;SDS011;60111;48.286;7.812;2023-05-02T00:17:15;9.20;;;4.50;;
72205;SDS011;60111;48.286;7.812;2023-05-02T00:19:49;6.53;;;4.80;;
72205;SDS011;60111;48.286;7.812;2023-05-02T00:22:22;6.28;;;4.05;;
72205;SDS011;60111;48.286;7.812;2023-05-02T00:24:55;5.22;;;4.72;;
72205;SDS011;60111;48.286;7.812;2023-05-02T00:27:31;5.73;;;4.63;;
72205;SDS011;60111;48.286;7.812;2023-05-02T00:30:04;6.70;;;4.62;;
72205;SDS011;60111;48.286;7.812;2023-05-02T00:32:37;4.57;;;4.17;;
72205;SDS011;60111;48.286;7.812;2023-05-02T00:35:10;5.72;;;4.53;;
72205;SDS011;60111;48.286;7.812;2023-05-02T00:37:42;5.78;;;4.50;;
72205;SDS011;60111;48.286;7.812;2023-05-02T00:40:15;5.97;;;4.05;;
72205;SDS011;60111;48.286;7.812;2023-05-02T00:42:48;8.23;;;4.17;;
72205;SDS011;60111;48.286;7.812;2023-05-02T00:45:20;4.78;;;4.28;;
72205;SDS011;60111;48.286;7.812;2023-05-02T00:47:53;7.97;;;4.63;;
72205;SDS011;60111;48.286;7.812;2023-05-02T00:50:27;7.33;;;4.50;;
72205;SDS011;60111;48.286;7.812;2023-05-02T00:53:01;5.28;;;4.25;;
72205;SDS011;60111;48.286;7.812;2023-05-02T00:55:35;5.83;;;4.30;;
72205;SDS011;60111;48.286;7.812;2023-05-02T00:58:11;4.55;;;4.15;;
72205;SDS011;60111;48.286;7.812;2023-05-02T01:03:50;5.53;;;4.80;;
72205;SDS011;60111;48.286;7.812;2023-05-02T01:09:33;6.17;;;4.20;;
72205;SDS011;60111;48.286;7.812;2023-05-02T01:17:36;5.90;;;4.42;;
72205;SDS011;60111;48.286;7.812;2023-05-02T01:20:11;6.42;;;4.33;;
72205;SDS011;60111;48.286;7.812;2023-05-02T01:22:45;4.60;;;4.20;;
72205;SDS011;60111;48.286;7.812;2023-05-02T01:25:38;6.17;;;4.47;;
72205;SDS011;60111;48.286;7.812;2023-05-02T01:31:38;5.47;;;4.97;;
72205;SDS011;60111;48.286;7.812;2023-05-02T01:34:08;5.20;;;4.70;;
72205;SDS011;60111;48.286;7.812;2023-05-02T01:36:42;7.90;;;4.53;;
72205;SDS011;60111;48.286;7.812;2023-05-02T01:39:19;5.25;;;4.70;;
72205;SDS011;60111;48.286;7.812;2023-05-02T01:41:55;7.30;;;4.43;;
72205;SDS011;60111;48.286;7.812;2023-05-02T01:47:04;4.92;;;4.30;;
72205;SDS011;60111;48.286;7.812;2023-05-02T01:49:38;6.55;;;4.75;;
72205;SDS011;60111;48.286;7.812;2023-05-02T01:52:13;4.67;;;4.20;;
72205;SDS011;60111;48.286;7.812;2023-05-02T01:54:47;5.47;;;4.75;;
72205;SDS011;60111;48.286;7.812;2023-05-02T01:57:22;4.62;;;4.17;;
72205;SDS011;60111;48.286;7.812;2023-05-02T01:59:56;5.87;;;4.20;;
72205;SDS011;60111;48.286;7.812;2023-05-02T02:02:30;4.93;;;4.40;;
72205;SDS011;60111;48.286;7.812;2023-05-02T02:05:04;8.03;;;4.40;;
72205;SDS011;60111;48.286;7.812;2023-05-02T02:07:40;5.15;;;4.65;;
72205;SDS011;60111;48.286;7.812;2023-05-02T02:10:14;5.75;;;4.72;;
72205;SDS011;60111;48.286;7.812;2023-05-02T02:12:49;7.97;;;4.83;;
72205;SDS011;60111;48.286;7.812;2023-05-02T02:15:25;6.42;;;4.60;;
72205;SDS011;60111;48.286;7.812;2023-05-02T02:18:08;5.00;;;4.50;;
72205;SDS011;60111;48.286;7.812;2023-05-02T02:20:43;6.10;;;4.80;;
72205;SDS011;60111;48.286;7.812;2023-05-02T02:23:17;6.75;;;5.03;;
72205;SDS011;60111;48.286;7.812;2023-05-02T02:25:53;6.72;;;4.83;;
72205;SDS011;60111;48.286;7.812;2023-05-02T02:28:27;5.20;;;4.70;;
72205;SDS011;60111;48.286;7.812;2023-05-02T02:31:00;5.78;;;5.25;;
72205;SDS011;60111;48.286;7.812;2023-05-02T02:33:32;5.20;;;4.70;;
72205;SDS011;60111;48.286;7.812;2023-05-02T02:36:14;7.05;;;4.65;;
72205;SDS011;60111;48.286;7.812;2023-05-02T02:38:53;5.33;;;4.83;;
72205;SDS011;60111;48.286;7.812;2023-05-02T02:44:50;6.27;;;5.20;;
72205;SDS011;60111;48.286;7.812;2023-05-02T02:53:13;7.22;;;5.25;;
72205;SDS011;60111;48.286;7.812;2023-05-02T02:55:52;7.23;;;4.80;;
72205;SDS011;60111;48.286;7.812;2023-05-02T03:01:00;6.22;;;5.03;;
72205;SDS011;60111;48.286;7.812;2023-05-02T03:03:35;5.60;;;5.00;;
72205;SDS011;60111;48.286;7.812;2023-05-02T03:06:10;5.22;;;4.70;;
72205;SDS011;60111;48.286;7.812;2023-05-02T03:08:43;7.60;;;5.17;;
72205;SDS011;60111;48.286;7.812;2023-05-02T03:11:16;5.33;;;4.83;;
72205;SDS011;60111;48.286;7.812;2023-05-02T03:13:49;6.08;;;4.58;;
72205;SDS011;60111;48.286;7.812;2023-05-02T03:16:35;7.93;;;4.93;;
72205;SDS011;60111;48.286;7.812;2023-05-02T03:19:09;6.83;;;4.80;;
72205;SDS011;60111;48.286;7.812;2023-05-02T03:21:42;6.12;;;4.62;;
72205;SDS011;60111;48.286;7.812;2023-05-02T03:24:15;4.95;;;4.50;;
72205;SDS011;60111;48.286;7.812;2023-05-02T03:26:48;5.90;;;5.20;;
72205;SDS011;60111;48.286;7.812;2023-05-02T03:29:20;6.67;;;5.45;;
72205;SDS011;60111;48.286;7.812;2023-05-02T03:31:54;5.23;;;4.73;;
72205;SDS011;60111;48.286;7.812;2023-05-02T03:34:28;5.87;;;4.83;;
72205;SDS011;60111;48.286;7.812;2023-05-02T03:37:00;5.60;;;5.10;;
72205;SDS011;60111;48.286;7.812;2023-05-02T03:39:33;5.67;;;5.05;;
72205;SDS011;60111;48.286;7.812;2023-05-02T03:42:05;7.13;;;5.17;;
72205;SDS011;60111;48.286;7.812;2023-05-02T03:44:38;8.45;;;6.70;;
72205;SDS011;60111;48.286;7.812;2023-05-02T03:47:11;11.73;;;8.63;;
72205;SDS011;60111;48.286;7.812;2023-05-02T03:52:17;11.12;;;7.40;;
72205;SDS011;60111;48.286;7.812;2023-05-02T03:54:50;7.83;;;5.95;;
72205;SDS011;60111;48.286;7.812;2023-05-02T03:57:22;6.62;;;5.97;;
72205;SDS011;60111;48.286;7.812;2023-05-02T03:59:55;6.65;;;5.78;;
72205;SDS011;60111;48.286;7.812;2023-05-02T04:02:28;8.60;;;5.97;;
72205;SDS011;60111;48.286;7.812;2023-05-02T04:05:01;7.37;;;6.05;;
72205;SDS011;60111;48.286;7.812;2023-05-02T04:07:34;9.80;;;5.85;;
72205;SDS011;60111;48.286;7.812;2023-05-02T04:10:06;7.67;;;6.22;;
72205;SDS011;60111;48.286;7.812;2023-05-02T04:12:41;9.90;;;5.83;;
72205;SDS011;60111;48.286;7.812;2023-05-02T04:15:14;7.28;;;6.00;;
72205;SDS011;60111;48.286;7.812;2023-05-02T04:17:46;7.22;;;5.80;;
72205;SDS011;60111;48.286;7.812;2023-05-02T04:20:20;9.63;;;6.22;;
72205;SDS011;60111;48.286;7.812;2023-05-02T04:22:52;9.30;;;5.97;;
72205;SDS011;60111;48.286;7.812;2023-05-02T04:25:26;9.40;;;5.33;;
72205;SDS011;60111;48.286;7.812;2023-05-02T04:27:59;6.77;;;5.80;;
72205;SDS011;60111;48.286;7.812;2023-05-02T04:30:31;7.22;;;5.70;;
72205;SDS011;60111;48.286;7.812;2023-05-02T04:33:04;13.65;;;6.00;;
72205;SDS011;60111;48.286;7.812;2023-05-02T04:35:38;9.37;;;5.70;;
72205;SDS011;60111;48.286;7.812;2023-05-02T04:40:43;5.87;;;5.28;;
72205;SDS011;60111;48.286;7.812;2023-05-02T04:43:16;6.78;;;5.80;;
72205;SDS011;60111;48.286;7.812;2023-05-02T04:45:48;7.05;;;5.50;;
72205;SDS011;60111;48.286;7.812;2023-05-02T04:48:21;6.37;;;5.45;;
72205;SDS011;60111;48.286;7.812;2023-05-02T04:50:55;6.67;;;5.67;;
72205;SDS011;60111;48.286;7.812;2023-05-02T04:53:27;7.22;;;5.55;;
72205;SDS011;60111;48.286;7.812;2023-05-02T04:56:00;9.03;;;5.90;;
72205;SDS011;60111;48.286;7.812;2023-05-02T04:58:32;8.38;;;7.12;;
72205;SDS011;60111;48.286;7.812;2023-05-02T05:01:08;10.40;;;8.20;;
72205;SDS011;60111;48.286;7.812;2023-05-02T05:03:40;8.05;;;7.03;;
72205;SDS011;60111;48.286;7.812;2023-05-02T05:06:13;9.70;;;7.60;;
72205;SDS011;60111;48.286;7.812;2023-05-02T05:08:46;10.88;;;6.45;;
72205;SDS011;60111;48.286;7.812;2023-05-02T05:11:20;11.63;;;6.55;;
72205;SDS011;60111;48.286;7.812;2023-05-02T05:13:53;7.30;;;6.47;;
72205;SDS011;60111;48.286;7.812;2023-05-02T05:16:25;8.23;;;6.75;;
72205;SDS011;60111;48.286;7.812;2023-05-02T05:18:58;11.43;;;9.23;;
72205;SDS011;60111;48.286;7.812;2023-05-02T05:21:31;10.78;;;7.92;;
72205;SDS011;60111;48.286;7.812;2023-05-02T05:24:04;10.38;;;8.15;;
72205;SDS011;60111;48.286;7.812;2023-05-02T05:26:36;7.22;;;6.53;;
72205;SDS011;60111;48.286;7.812;2023-05-02T05:29:09;8.18;;;7.37;;
72205;SDS011;60111;48.286;7.812;2023-05-02T05:31:42;7.53;;;6.30;;
72205;SDS011;60111;48.286;7.812;2023-05-02T05:34:14;8.75;;;6.00;;
72205;SDS011;60111;48.286;7.812;2023-05-02T05:36:47;6.45;;;5.85;;
72205;SDS011;60111;48.286;7.812;2023-05-02T05:39:20;7.12;;;5.85;;
72205;SDS011;60111;48.286;7.812;2023-05-02T05:41:53;7.00;;;5.97;;
72205;SDS011;60111;48.286;7.812;2023-05-02T05:44:27;12.75;;;5.47;;
72205;SDS011;60111;48.286;7.812;2023-05-02T05:47:01;9.60;;;5.43;;
72205;SDS011;60111;48.286;7.812;2023-05-02T05:49:34;5.70;;;5.17;;
72205;SDS011;60111;48.286;7.812;2023-05-02T05:52:06;6.45;;;5.33;;
72205;SDS011;60111;48.286;7.812;2023-05-02T05:54:39;7.70;;;5.10;;
72205;SDS011;60111;48.286;7.812;2023-05-02T05:57:12;8.63;;;4.97;;
72205;SDS011;60111;48.286;7.812;2023-05-02T05:59:44;6.37;;;5.22;;
72205;SDS011;60111;48.286;7.812;2023-05-02T06:02:17;6.15;;;4.92;;
72205;SDS011;60111;48.286;7.812;2023-05-02T06:04:50;5.60;;;4.47;;
72205;SDS011;60111;48.286;7.812;2023-05-02T06:07:22;5.00;;;3.85;;
72205;SDS011;60111;48.286;7.812;2023-05-02T06:09:55;4.75;;;4.35;;
72205;SDS011;60111;48.286;7.812;2023-05-02T06:12:28;6.58;;;4.60;;
72205;SDS011;60111;48.286;7.812;2023-05-02T06:15:01;6.83;;;5.37;;
72205;SDS011;60111;48.286;7.812;2023-05-02T06:17:34;6.65;;;5.70;;
72205;SDS011;60111;48.286;7.812;2023-05-02T06:20:06;6.50;;;5.85;;
72205;SDS011;60111;48.286;7.812;2023-05-02T06:22:39;13.40;;;7.83;;
72205;SDS011;60111;48.286;7.812;2023-05-02T06:25:12;10.43;;;8.63;;
72205;SDS011;60111;48.286;7.812;2023-05-02T06:27:44;15.70;;;11.68;;
72205;SDS011;60111;48.286;7.812;2023-05-02T06:30:17;13.70;;;11.10;;
72205;SDS011;60111;48.286;7.812;2023-05-02T06:32:50;14.28;;;10.55;;
72205;SDS011;60111;48.286;7.812;2023-05-02T06:35:22;18.82;;;12.10;;
72205;SDS011;60111;48.286;7.812;2023-05-02T06:37:55;15.55;;;12.07;;
72205;SDS011;60111;48.286;7.812;2023-05-02T06:40:27;14.35;;;12.18;;
72205;SDS011;60111;48.286;7.812;2023-05-02T06:43:00;16.40;;;12.70;;
72205;SDS011;60111;48.286;7.812;2023-05-02T06:45:33;16.85;;;13.93;;
72205;SDS011;60111;48.286;7.812;2023-05-02T06:48:06;16.85;;;13.05;;
72205;SDS011;60111;48.286;7.812;2023-05-02T06:50:39;15.72;;;12.60;;
72205;SDS011;60111;48.286;7.812;2023-05-02T06:53:11;14.00;;;12.00;;
72205;SDS011;60111;48.286;7.812;2023-05-02T06:55:44;14.00;;;11.43;;
72205;SDS011;60111;48.286;7.812;2023-05-02T06:58:18;17.02;;;11.73;;
72205;SDS011;60111;48.286;7.812;2023-05-02T07:00:50;9.50;;;8.40;;
72205;SDS011;60111;48.286;7.812;2023-05-02T07:03:23;10.35;;;9.18;;
72205;SDS011;60111;48.286;7.812;2023-05-02T07:05:56;12.78;;;11.48;;
72205;SDS011;60111;48.286;7.812;2023-05-02T07:08:28;9.68;;;8.20;;
72205;SDS011;60111;48.286;7.812;2023-05-02T07:11:01;9.58;;;8.25;;
72205;SDS011;60111;48.286;7.812;2023-05-02T07:13:34;9.43;;;8.35;;
72205;SDS011;60111;48.286;7.812;2023-05-02T07:16:06;12.53;;;10.87;;
72205;SDS011;60111;48.286;7.812;2023-05-02T07:18:39;14.73;;;13.13;;
72205;SDS011;60111;48.286;7.812;2023-05-02T07:21:12;13.83;;;9.95;;
72205;SDS011;60111;48.286;7.812;2023-05-02T07:23:44;12.80;;;11.50;;
72205;SDS011;60111;48.286;7.812;2023-05-02T07:26:17;15.03;;;11.95;;
72205;SDS011;60111;48.286;7.812;2023-05-02T07:28:50;13.38;;;10.03;;
72205;SDS011;60111;48.286;7.812;2023-05-02T07:31:23;13.72;;;12.23;;
72205;SDS011;60111;48.286;7.812;2023-05-02T07:33:55;17.00;;;13.58;;
72205;SDS011;60111;48.286;7.812;2023-05-02T07:36:28;13.05;;;11.12;;
72205;SDS011;60111;48.286;7.812;2023-05-02T07:39:01;15.03;;;11.30;;
72205;SDS011;60111;48.286;7.812;2023-05-02T07:41:33;13.23;;;11.50;;
72205;SDS011;60111;48.286;7.812;2023-05-02T07:44:06;13.78;;;11.50;;
72205;SDS011;60111;48.286;7.812;2023-05-02T07:46:38;13.98;;;10.68;;
72205;SDS011;60111;48.286;7.812;2023-05-02T07:49:11;12.67;;;11.20;;
72205;SDS011;60111;48.286;7.812;2023-05-02T07:51:45;12.55;;;11.25;;
72205;SDS011;60111;48.286;7.812;2023-05-02T07:54:19;14.30;;;10.97;;
72205;SDS011;60111;48.286;7.812;2023-05-02T07:56:52;11.40;;;9.53;;
72205;SDS011;60111;48.286;7.812;2023-05-02T07:59:26;15.03;;;10.70;;
72205;SDS011;60111;48.286;7.812;2023-05-02T08:02:00;13.30;;;11.28;;
72205;SDS011;60111;48.286;7.812;2023-05-02T08:04:33;13.88;;;10.90;;
72205;SDS011;60111;48.286;7.812;2023-05-02T08:07:06;14.15;;;12.55;;
72205;SDS011;60111;48.286;7.812;2023-05-02T08:09:38;16.00;;;13.40;;
72205;SDS011;60111;48.286;7.812;2023-05-02T08:12:11;15.43;;;12.23;;
72205;SDS011;60111;48.286;7.812;2023-05-02T08:14:43;13.32;;;11.25;;
72205;SDS011;60111;48.286;7.812;2023-05-02T08:17:16;15.72;;;12.88;;
72205;SDS011;60111;48.286;7.812;2023-05-02T08:19:48;14.43;;;11.18;;
72205;SDS011;60111;48.286;7.812;2023-05-02T08:22:21;15.13;;;11.53;;
72205;SDS011;60111;48.286;7.812;2023-05-02T08:24:54;17.00;;;12.53;;
72205;SDS011;60111;48.286;7.812;2023-05-02T08:27:26;17.73;;;11.80;;
72205;SDS011;60111;48.286;7.812;2023-05-02T08:29:59;14.55;;;11.18;;
72205;SDS011;60111;48.286;7.812;2023-05-02T08:32:31;17.57;;;12.73;;
72205;SDS011;60111;48.286;7.812;2023-05-02T08:35:04;12.20;;;10.32;;
72205;SDS011;60111;48.286;7.812;2023-05-02T08:37:38;13.70;;;12.27;;
72205;SDS011;60111;48.286;7.812;2023-05-02T08:40:11;14.13;;;11.90;;
72205;SDS011;60111;48.286;7.812;2023-05-02T08:42:44;12.68;;;11.35;;
72205;SDS011;60111;48.286;7.812;2023-05-02T08:45:17;13.28;;;11.90;;
72205;SDS011;60111;48.286;7.812;2023-05-02T08:47:50;14.38;;;12.25;;
72205;SDS011;60111;48.286;7.812;2023-05-02T08:50:24;16.30;;;12.83;;
72205;SDS011;60111;48.286;7.812;2023-05-02T08:52:57;11.23;;;9.87;;
72205;SDS011;60111;48.286;7.812;2023-05-02T08:55:31;11.53;;;10.27;;
72205;SDS011;60111;48.286;7.812;2023-05-02T08:58:06;15.70;;;11.38;;
72205;SDS011;60111;48.286;7.812;2023-05-02T09:00:41;12.63;;;10.80;;
72205;SDS011;60111;48.286;7.812;2023-05-02T09:03:21;10.90;;;9.80;;
72205;SDS011;60111;48.286;7.812;2023-05-02T09:08:49;14.30;;;10.50;;
72205;SDS011;60111;48.286;7.812;2023-05-02T09:11:24;12.80;;;9.87;;
72205;SDS011;60111;48.286;7.812;2023-05-02T09:13:57;10.68;;;8.90;;
72205;SDS011;60111;48.286;7.812;2023-05-02T09:19:05;13.00;;;10.10;;
72205;SDS011;60111;48.286;7.812;2023-05-02T09:21:38;10.87;;;9.37;;
72205;SDS011;60111;48.286;7.812;2023-05-02T09:24:18;8.80;;;7.67;;
72205;SDS011;60111;48.286;7.812;2023-05-02T09:26:59;10.18;;;8.83;;
72205;SDS011;60111;48.286;7.812;2023-05-02T09:29:33;8.30;;;6.97;;
72205;SDS011;60111;48.286;7.812;2023-05-02T09:32:07;11.00;;;9.30;;
72205;SDS011;60111;48.286;7.812;2023-05-02T09:34:40;6.83;;;5.53;;
72205;SDS011;60111;48.286;7.812;2023-05-02T09:37:32;7.67;;;6.87;;
72205;SDS011;60111;48.286;7.812;2023-05-02T09:40:05;9.83;;;7.17;;
72205;SDS011;60111;48.286;7.812;2023-05-02T09:42:42;12.20;;;9.45;;
72205;SDS011;60111;48.286;7.812;2023-05-02T09:45:21;8.60;;;7.78;;
72205;SDS011;60111;48.286;7.812;2023-05-02T09:47:55;8.10;;;7.30;;
72205;SDS011;60111;48.286;7.812;2023-05-02T09:50:31;11.93;;;8.47;;
72205;SDS011;60111;48.286;7.812;2023-05-02T09:53:06;9.78;;;7.78;;
72205;SDS011;60111;48.286;7.812;2023-05-02T09:55:41;8.10;;;6.15;;
72205;SDS011;60111;48.286;7.812;2023-05-02T09:58:24;9.73;;;8.83;;
72205;SDS011;60111;48.286;7.812;2023-05-02T10:00:55;11.75;;;9.70;;
72205;SDS011;60111;48.286;7.812;2023-05-02T10:06:02;17.15;;;11.20;;
72205;SDS011;60111;48.286;7.812;2023-05-02T10:08:37;12.15;;;10.30;;
72205;SDS011;60111;48.286;7.812;2023-05-02T10:11:12;16.63;;;11.97;;
72205;SDS011;60111;48.286;7.812;2023-05-02T10:13:45;15.87;;;13.30;;
72205;SDS011;60111;48.286;7.812;2023-05-02T10:16:19;14.60;;;12.50;;
72205;SDS011;60111;48.286;7.812;2023-05-02T10:19:17;14.27;;;11.63;;
72205;SDS011;60111;48.286;7.812;2023-05-02T10:21:35;14.45;;;12.47;;
72205;SDS011;60111;48.286;7.812;2023-05-02T10:24:10;16.85;;;13.20;;
72205;SDS011;60111;48.286;7.812;2023-05-02T10:26:43;14.47;;;12.33;;
72205;SDS011;60111;48.286;7.812;2023-05-02T10:29:16;16.23;;;12.98;;
72205;SDS011;60111;48.286;7.812;2023-05-02T10:31:49;20.92;;;17.07;;
72205;SDS011;60111;48.286;7.812;2023-05-02T10:34:22;12.73;;;11.27;;
72205;SDS011;60111;48.286;7.812;2023-05-02T10:36:55;20.15;;;14.98;;
72205;SDS011;60111;48.286;7.812;2023-05-02T10:42:02;17.17;;;14.13;;
72205;SDS011;60111;48.286;7.812;2023-05-02T10:44:37;19.12;;;14.90;;
72205;SDS011;60111;48.286;7.812;2023-05-02T10:47:24;18.32;;;14.50;;
72205;SDS011;60111;48.286;7.812;2023-05-02T10:50:00;17.07;;;14.15;;
72205;SDS011;60111;48.286;7.812;2023-05-02T10:52:35;16.70;;;13.95;;
72205;SDS011;60111;48.286;7.812;2023-05-02T10:55:20;13.95;;;12.13;;
72205;SDS011;60111;48.286;7.812;2023-05-02T11:00:33;17.55;;;14.30;;
72205;SDS011;60111;48.286;7.812;2023-05-02T11:03:05;18.60;;;13.62;;
72205;SDS011;60111;48.286;7.812;2023-05-02T11:06:03;13.93;;;11.48;;
72205;SDS011;60111;48.286;7.812;2023-05-02T11:10:56;16.65;;;13.85;;
72205;SDS011;60111;48.286;7.812;2023-05-02T11:13:48;13.58;;;11.97;;
72205;SDS011;60111;48.286;7.812;2023-05-02T11:16:21;15.20;;;12.98;;
72205;SDS011;60111;48.286;7.812;2023-05-02T11:18:57;14.98;;;13.05;;
72205;SDS011;60111;48.286;7.812;2023-05-02T11:21:30;16.17;;;13.75;;
72205;SDS011;60111;48.286;7.812;2023-05-02T11:30:08;12.65;;;11.25;;
72205;SDS011;60111;48.286;7.812;2023-05-02T11:35:23;14.33;;;11.48;;
72205;SDS011;60111;48.286;7.812;2023-05-02T11:40:29;12.78;;;11.05;;
72205;SDS011;60111;48.286;7.812;2023-05-02T11:43:16;12.97;;;10.60;;
72205;SDS011;60111;48.286;7.812;2023-05-02T11:45:51;10.25;;;8.63;;
72205;SDS011;60111;48.286;7.812;2023-05-02T11:48:25;9.85;;;7.90;;
72205;SDS011;60111;48.286;7.812;2023-05-02T11:50:58;15.37;;;12.03;;
72205;SDS011;60111;48.286;7.812;2023-05-02T11:53:38;13.60;;;10.35;;
72205;SDS011;60111;48.286;7.812;2023-05-02T11:56:11;11.38;;;9.20;;
72205;SDS011;60111;48.286;7.812;2023-05-02T11:58:44;13.68;;;9.03;;
72205;SDS011;60111;48.286;7.812;2023-05-02T12:01:17;14.05;;;10.78;;
72205;SDS011;60111;48.286;7.812;2023-05-02T12:03:50;11.78;;;10.08;;
72205;SDS011;60111;48.286;7.812;2023-05-02T12:06:35;13.72;;;10.25;;
72205;SDS011;60111;48.286;7.812;2023-05-02T12:09:08;11.00;;;9.53;;
72205;SDS011;60111;48.286;7.812;2023-05-02T12:11:43;15.23;;;12.57;;
72205;SDS011;60111;48.286;7.812;2023-05-02T12:14:16;12.63;;;10.93;;
72205;SDS011;60111;48.286;7.812;2023-05-02T12:16:49;11.20;;;10.00;;
72205;SDS011;60111;48.286;7.812;2023-05-02T12:19:22;9.33;;;8.10;;
72205;SDS011;60111;48.286;7.812;2023-05-02T12:21:55;9.93;;;7.22;;
72205;SDS011;60111;48.286;7.812;2023-05-02T12:24:27;9.68;;;8.68;;
72205;SDS011;60111;48.286;7.812;2023-05-02T12:27:10;11.97;;;9.78;;
72205;SDS011;60111;48.286;7.812;2023-05-02T12:29:43;11.50;;;10.30;;
72205;SDS011;60111;48.286;7.812;2023-05-02T12:32:30;8.20;;;7.33;;
72205;SDS011;60111;48.286;7.812;2023-05-02T12:35:04;9.70;;;7.35;;
72205;SDS011;60111;48.286;7.812;2023-05-02T12:37:40;13.60;;;9.50;;
72205;SDS011;60111;48.286;7.812;2023-05-02T12:40:14;11.97;;;9.93;;
72205;SDS011;60111;48.286;7.812;2023-05-02T12:43:02;12.03;;;10.05;;
72205;SDS011;60111;48.286;7.812;2023-05-02T12:45:33;9.20;;;8.30;;
72205;SDS011;60111;48.286;7.812;2023-05-02T12:48:19;6.90;;;5.57;;
72205;SDS011;60111;48.286;7.812;2023-05-02T12:50:56;9.43;;;7.12;;
72205;SDS011;60111;48.286;7.812;2023-05-02T12:54:03;10.45;;;7.50;;
72205;SDS011;60111;48.286;7.812;2023-05-02T12:56:13;8.60;;;7.22;;
72205;SDS011;60111;48.286;7.812;2023-05-02T12:58:46;10.18;;;7.65;;
72205;SDS011;60111;48.286;7.812;2023-05-02T13:01:21;10.85;;;8.30;;
72205;SDS011;60111;48.286;7.812;2023-05-02T13:03:54;9.35;;;7.25;;
72205;SDS011;60111;48.286;7.812;2023-05-02T13:06:26;7.83;;;7.03;;
72205;SDS011;60111;48.286;7.812;2023-05-02T13:08:59;8.70;;;6.67;;
72205;SDS011;60111;48.286;7.812;2023-05-02T13:11:31;10.82;;;7.95;;
72205;SDS011;60111;48.286;7.812;2023-05-02T13:14:04;9.73;;;8.35;;
72205;SDS011;60111;48.286;7.812;2023-05-02T13:16:36;12.05;;;8.68;;
72205;SDS011;60111;48.286;7.812;2023-05-02T13:19:09;8.98;;;8.08;;
72205;SDS011;60111;48.286;7.812;2023-05-02T13:21:42;9.63;;;8.48;;
72205;SDS011;60111;48.286;7.812;2023-05-02T13:24:14;8.53;;;7.60;;
72205;SDS011;60111;48.286;7.812;2023-05-02T13:26:47;10.33;;;8.07;;
72205;SDS011;60111;48.286;7.812;2023-05-02T13:29:21;10.18;;;8.90;;
72205;SDS011;60111;48.286;7.812;2023-05-02T13:31:53;9.40;;;7.50;;
72205;SDS011;60111;48.286;7.812;2023-05-02T13:34:26;9.65;;;6.97;;
72205;SDS011;60111;48.286;7.812;2023-05-02T13:36:58;10.30;;;8.50;;
72205;SDS011;60111;48.286;7.812;2023-05-02T13:39:31;9.33;;;7.80;;
72205;SDS011;60111;48.286;7.812;2023-05-02T13:42:04;8.48;;;7.12;;
72205;SDS011;60111;48.286;7.812;2023-05-02T13:44:37;8.37;;;6.70;;
72205;SDS011;60111;48.286;7.812;2023-05-02T13:47:10;10.80;;;7.70;;
72205;SDS011;60111;48.286;7.812;2023-05-02T13:49:43;11.00;;;7.45;;
72205;SDS011;60111;48.286;7.812;2023-05-02T13:52:15;9.78;;;7.22;;
72205;SDS011;60111;48.286;7.812;2023-05-02T13:54:48;10.13;;;7.35;;
72205;SDS011;60111;48.286;7.812;2023-05-02T13:57:21;12.60;;;9.30;;
72205;SDS011;60111;48.286;7.812;2023-05-02T13:59:54;13.30;;;10.70;;
72205;SDS011;60111;48.286;7.812;2023-05-02T14:02:26;10.33;;;9.07;;
72205;SDS011;60111;48.286;7.812;2023-05-02T14:04:59;12.33;;;10.60;;
72205;SDS011;60111;48.286;7.812;2023-05-02T14:07:31;13.25;;;11.40;;
72205;SDS011;60111;48.286;7.812;2023-05-02T14:10:04;15.18;;;12.88;;
72205;SDS011;60111;48.286;7.812;2023-05-02T14:12:38;14.00;;;11.80;;
72205;SDS011;60111;48.286;7.812;2023-05-02T14:15:10;19.45;;;13.95;;
72205;SDS011;60111;48.286;7.812;2023-05-02T14:17:43;21.03;;;15.40;;
72205;SDS011;60111;48.286;7.812;2023-05-02T14:20:16;20.00;;;14.95;;
72205;SDS011;60111;48.286;7.812;2023-05-02T14:22:48;20.87;;;15.50;;
72205;SDS011;60111;48.286;7.812;2023-05-02T14:25:21;18.05;;;15.78;;
72205;SDS011;60111;48.286;7.812;2023-05-02T14:27:54;18.90;;;15.48;;
72205;SDS011;60111;48.286;7.812;2023-05-02T14:30:26;19.77;;;15.67;;
72205;SDS011;60111;48.286;7.812;2023-05-02T14:32:59;16.20;;;14.30;;
72205;SDS011;60111;48.286;7.812;2023-05-02T14:35:32;15.93;;;13.10;;
72205;SDS011;60111;48.286;7.812;2023-05-02T14:38:04;14.27;;;11.63;;
72205;SDS011;60111;48.286;7.812;2023-05-02T14:40:37;13.80;;;11.63;;
72205;SDS011;60111;48.286;7.812;2023-05-02T14:43:10;14.05;;;12.23;;
72205;SDS011;60111;48.286;7.812;2023-05-02T14:45:43;14.75;;;10.60;;
72205;SDS011;60111;48.286;7.812;2023-05-02T14:48:15;16.35;;;12.55;;
72205;SDS011;60111;48.286;7.812;2023-05-02T14:50:48;13.43;;;10.88;;
72205;SDS011;60111;48.286;7.812;2023-05-02T14:53:22;12.78;;;11.18;;
72205;SDS011;60111;48.286;7.812;2023-05-02T14:55:54;12.98;;;10.43;;
72205;SDS011;60111;48.286;7.812;2023-05-02T14:58:27;14.23;;;10.80;;
72205;SDS011;60111;48.286;7.812;2023-05-02T15:01:00;14.13;;;11.23;;
72205;SDS011;60111;48.286;7.812;2023-05-02T15:03:33;14.38;;;11.57;;
72205;SDS011;60111;48.286;7.812;2023-05-02T15:06:05;15.03;;;11.33;;
72205;SDS011;60111;48.286;7.812;2023-05-02T15:08:39;13.20;;;11.37;;
72205;SDS011;60111;48.286;7.812;2023-05-02T15:11:12;13.28;;;9.98;;
72205;SDS011;60111;48.286;7.812;2023-05-02T15:13:46;10.95;;;9.75;;
72205;SDS011;60111;48.286;7.812;2023-05-02T15:16:18;10.50;;;8.95;;
72205;SDS011;60111;48.286;7.812;2023-05-02T15:18:51;12.73;;;10.80;;
72205;SDS011;60111;48.286;7.812;2023-05-02T15:21:24;13.68;;;11.30;;
72205;SDS011;60111;48.286;7.812;2023-05-02T15:23:57;13.93;;;10.32;;
72205;SDS011;60111;48.286;7.812;2023-05-02T15:26:29;14.60;;;10.93;;
72205;SDS011;60111;48.286;7.812;2023-05-02T15:29:02;13.25;;;9.38;;
72205;SDS011;60111;48.286;7.812;2023-05-02T15:31:35;10.25;;;8.45;;
72205;SDS011;60111;48.286;7.812;2023-05-02T15:34:07;10.17;;;7.77;;
72205;SDS011;60111;48.286;7.812;2023-05-02T15:36:40;9.15;;;7.47;;
72205;SDS011;60111;48.286;7.812;2023-05-02T15:39:12;13.43;;;8.50;;
72205;SDS011;60111;48.286;7.812;2023-05-02T15:41:45;11.90;;;7.53;;
72205;SDS011;60111;48.286;7.812;2023-05-02T15:44:18;10.15;;;7.28;;
72205;SDS011;60111;48.286;7.812;2023-05-02T15:46:51;9.20;;;7.60;;
72205;SDS011;60111;48.286;7.812;2023-05-02T15:49:25;8.25;;;7.00;;
72205;SDS011;60111;48.286;7.812;2023-05-02T15:52:00;9.53;;;6.95;;
72205;SDS011;60111;48.286;7.812;2023-05-02T15:57:05;6.55;;;5.83;;
72205;SDS011;60111;48.286;7.812;2023-05-02T15:59:38;8.95;;;5.33;;
72205;SDS011;60111;48.286;7.812;2023-05-02T16:02:10;6.77;;;5.13;;
72205;SDS011;60111;48.286;7.812;2023-05-02T16:04:43;6.92;;;4.78;;
72205;SDS011;60111;48.286;7.812;2023-05-02T16:07:16;5.85;;;5.08;;
72205;SDS011;60111;48.286;7.812;2023-05-02T16:09:49;7.75;;;5.08;;
72205;SDS011;60111;48.286;7.812;2023-05-02T16:12:21;5.90;;;5.40;;
72205;SDS011;60111;48.286;7.812;2023-05-02T16:14:54;6.50;;;5.00;;
72205;SDS011;60111;48.286;7.812;2023-05-02T16:17:27;7.65;;;5.22;;
72205;SDS011;60111;48.286;7.812;2023-05-02T16:19:59;6.70;;;4.60;;